sensor_id;sensor_type;location;lat;lon;timestamp;P1;durP1;ratioP1;P2;durP2;ratioP2
17253;SDS011;32542;52.832;13.816;2022-12-24T00:02:11;4.28;;;3.05;;
17253;SDS011;32542;52.832;13.816;2022-12-24T00:05:14;4.50;;;3.17;;
17253;SDS011;32542;52.832;13.816;2022-12-24T00:08:17;4.00;;;2.92;;
17253;SDS011;32542;52.832;13.816;2022-12-24T00:11:20;4.90;;;3.45;;
17253;SDS011;32542;52.832;13.816;2022-12-24T00:14:23;3.65;;;2.97;;
17253;SDS011;32542;52.832;13.816;2022-12-24T00:17:28;5.80;;;3.38;;
17253;SDS011;32542;52.832;13.816;2022-12-24T00:20:31;4.65;;;3.55;;
17253;SDS011;32542;52.832;13.816;2022-12-24T00:23:34;4.82;;;3.80;;
17253;SDS011;32542;52.832;13.816;2022-12-24T00:26:37;4.13;;;3.08;;
17253;SDS011;32542;52.832;13.816;2022-12-24T00:29:39;4.90;;;3.20;;
17253;SDS011;32542;52.832;13.816;2022-12-24T00:32:44;5.10;;;3.13;;
17253;SDS011;32542;52.832;13.816;2022-12-24T00:35:48;3.22;;;2.90;;
17253;SDS011;32542;52.832;13.816;2022-12-24T00:38:52;4.63;;;3.35;;
17253;SDS011;32542;52.832;13.816;2022-12-24T00:41:55;3.95;;;2.97;;
17253;SDS011;32542;52.832;13.816;2022-12-24T00:44:58;3.83;;;3.15;;
17253;SDS011;32542;52.832;13.816;2022-12-24T00:48:03;5.03;;;3.30;;
17253;SDS011;32542;52.832;13.816;2022-12-24T00:51:05;4.55;;;3.13;;
17253;SDS011;32542;52.832;13.816;2022-12-24T00:54:08;3.42;;;3.13;;
17253;SDS011;32542;52.832;13.816;2022-12-24T00:57:11;5.10;;;3.80;;
17253;SDS011;32542;52.832;13.816;2022-12-24T01:00:14;4.75;;;3.40;;
17253;SDS011;32542;52.832;13.816;2022-12-24T01:03:19;5.07;;;3.28;;
17253;SDS011;32542;52.832;13.816;2022-12-24T01:06:22;4.55;;;3.60;;
17253;SDS011;32542;52.832;13.816;2022-12-24T01:09:24;4.68;;;2.95;;
17253;SDS011;32542;52.832;13.816;2022-12-24T01:12:27;4.50;;;3.50;;
17253;SDS011;32542;52.832;13.816;2022-12-24T01:15:30;4.88;;;3.45;;
17253;SDS011;32542;52.832;13.816;2022-12-24T01:18:34;4.18;;;3.38;;
17253;SDS011;32542;52.832;13.816;2022-12-24T01:21:37;4.30;;;3.25;;
17253;SDS011;32542;52.832;13.816;2022-12-24T01:24:40;3.65;;;3.00;;
17253;SDS011;32542;52.832;13.816;2022-12-24T01:27:44;4.85;;;3.45;;
17253;SDS011;32542;52.832;13.816;2022-12-24T01:30:47;4.35;;;3.28;;
17253;SDS011;32542;52.832;13.816;2022-12-24T01:33:51;3.40;;;2.88;;
17253;SDS011;32542;52.832;13.816;2022-12-24T01:36:54;3.40;;;3.10;;
17253;SDS011;32542;52.832;13.816;2022-12-24T01:39:57;4.15;;;3.40;;
17253;SDS011;32542;52.832;13.816;2022-12-24T01:43:14;3.97;;;3.08;;
17253;SDS011;32542;52.832;13.816;2022-12-24T01:46:25;4.68;;;3.28;;
17253;SDS011;32542;52.832;13.816;2022-12-24T01:49:34;4.13;;;3.05;;
17253;SDS011;32542;52.832;13.816;2022-12-24T01:52:39;3.55;;;3.05;;
17253;SDS011;32542;52.832;13.816;2022-12-24T01:55:42;3.92;;;3.33;;
17253;SDS011;32542;52.832;13.816;2022-12-24T01:58:49;3.40;;;3.00;;
17253;SDS011;32542;52.832;13.816;2022-12-24T02:01:56;3.80;;;3.15;;
17253;SDS011;32542;52.832;13.816;2022-12-24T02:05:02;4.07;;;3.30;;
17253;SDS011;32542;52.832;13.816;2022-12-24T02:08:09;4.50;;;3.20;;
17253;SDS011;32542;52.832;13.816;2022-12-24T02:11:12;3.55;;;3.08;;
17253;SDS011;32542;52.832;13.816;2022-12-24T02:14:17;3.75;;;3.00;;
17253;SDS011;32542;52.832;13.816;2022-12-24T02:17:22;4.03;;;2.97;;
17253;SDS011;32542;52.832;13.816;2022-12-24T02:24:35;3.47;;;2.78;;
17253;SDS011;32542;52.832;13.816;2022-12-24T02:27:55;3.58;;;2.70;;
17253;SDS011;32542;52.832;13.816;2022-12-24T02:31:03;3.75;;;3.00;;
17253;SDS011;32542;52.832;13.816;2022-12-24T02:34:08;4.10;;;3.13;;
17253;SDS011;32542;52.832;13.816;2022-12-24T02:37:17;3.83;;;3.08;;
17253;SDS011;32542;52.832;13.816;2022-12-24T02:40:23;3.50;;;3.00;;
17253;SDS011;32542;52.832;13.816;2022-12-24T02:43:31;3.10;;;2.70;;
17253;SDS011;32542;52.832;13.816;2022-12-24T02:46:38;3.88;;;3.00;;
17253;SDS011;32542;52.832;13.816;2022-12-24T02:49:42;3.92;;;2.97;;
17253;SDS011;32542;52.832;13.816;2022-12-24T02:52:46;3.25;;;2.80;;
17253;SDS011;32542;52.832;13.816;2022-12-24T02:55:52;3.72;;;3.05;;
17253;SDS011;32542;52.832;13.816;2022-12-24T02:59:13;3.85;;;2.85;;
17253;SDS011;32542;52.832;13.816;2022-12-24T03:02:31;3.80;;;2.95;;
17253;SDS011;32542;52.832;13.816;2022-12-24T03:05:47;3.30;;;2.88;;
17253;SDS011;32542;52.832;13.816;2022-12-24T03:08:53;3.20;;;2.90;;
17253;SDS011;32542;52.832;13.816;2022-12-24T03:12:03;3.58;;;3.10;;
17253;SDS011;32542;52.832;13.816;2022-12-24T03:15:13;3.85;;;3.22;;
17253;SDS011;32542;52.832;13.816;2022-12-24T03:18:21;3.28;;;2.70;;
17253;SDS011;32542;52.832;13.816;2022-12-24T03:21:27;4.07;;;3.20;;
17253;SDS011;32542;52.832;13.816;2022-12-24T03:24:33;3.88;;;2.95;;
17253;SDS011;32542;52.832;13.816;2022-12-24T03:27:36;3.55;;;2.60;;
17253;SDS011;32542;52.832;13.816;2022-12-24T03:30:41;3.55;;;2.97;;
17253;SDS011;32542;52.832;13.816;2022-12-24T03:33:46;4.15;;;3.00;;
17253;SDS011;32542;52.832;13.816;2022-12-24T03:36:49;5.40;;;3.08;;
17253;SDS011;32542;52.832;13.816;2022-12-24T03:39:52;4.22;;;2.92;;
17253;SDS011;32542;52.832;13.816;2022-12-24T03:42:55;3.63;;;2.90;;
17253;SDS011;32542;52.832;13.816;2022-12-24T03:46:02;4.15;;;3.22;;
17253;SDS011;32542;52.832;13.816;2022-12-24T03:49:07;3.00;;;2.70;;
17253;SDS011;32542;52.832;13.816;2022-12-24T03:52:10;3.80;;;2.90;;
17253;SDS011;32542;52.832;13.816;2022-12-24T03:55:12;3.30;;;2.85;;
17253;SDS011;32542;52.832;13.816;2022-12-24T03:58:15;3.20;;;2.90;;
17253;SDS011;32542;52.832;13.816;2022-12-24T04:01:18;3.13;;;2.83;;
17253;SDS011;32542;52.832;13.816;2022-12-24T04:04:23;3.55;;;2.80;;
17253;SDS011;32542;52.832;13.816;2022-12-24T04:07:26;4.40;;;2.90;;
17253;SDS011;32542;52.832;13.816;2022-12-24T04:10:29;4.00;;;2.90;;
17253;SDS011;32542;52.832;13.816;2022-12-24T04:13:31;3.72;;;2.72;;
17253;SDS011;32542;52.832;13.816;2022-12-24T04:16:35;3.00;;;2.50;;
17253;SDS011;32542;52.832;13.816;2022-12-24T04:19:39;4.60;;;3.20;;
17253;SDS011;32542;52.832;13.816;2022-12-24T04:22:42;3.50;;;2.95;;
17253;SDS011;32542;52.832;13.816;2022-12-24T04:25:45;3.38;;;2.70;;
17253;SDS011;32542;52.832;13.816;2022-12-24T04:28:48;3.13;;;2.72;;
17253;SDS011;32542;52.832;13.816;2022-12-24T04:31:51;3.05;;;2.70;;
17253;SDS011;32542;52.832;13.816;2022-12-24T04:34:55;4.05;;;3.03;;
17253;SDS011;32542;52.832;13.816;2022-12-24T04:37:58;3.00;;;2.58;;
17253;SDS011;32542;52.832;13.816;2022-12-24T04:41:01;3.78;;;2.97;;
17253;SDS011;32542;52.832;13.816;2022-12-24T04:44:07;3.10;;;2.65;;
17253;SDS011;32542;52.832;13.816;2022-12-24T04:47:11;2.72;;;2.45;;
17253;SDS011;32542;52.832;13.816;2022-12-24T04:50:15;3.42;;;2.67;;
17253;SDS011;32542;52.832;13.816;2022-12-24T04:53:18;2.72;;;2.50;;
17253;SDS011;32542;52.832;13.816;2022-12-24T04:56:22;3.78;;;2.67;;
17253;SDS011;32542;52.832;13.816;2022-12-24T04:59:26;3.33;;;2.80;;
17253;SDS011;32542;52.832;13.816;2022-12-24T05:02:29;3.00;;;2.60;;
17253;SDS011;32542;52.832;13.816;2022-12-24T05:05:34;4.43;;;3.13;;
17253;SDS011;32542;52.832;13.816;2022-12-24T05:08:37;2.60;;;2.40;;
17253;SDS011;32542;52.832;13.816;2022-12-24T05:11:40;2.58;;;2.33;;
17253;SDS011;32542;52.832;13.816;2022-12-24T05:14:43;2.97;;;2.65;;
17253;SDS011;32542;52.832;13.816;2022-12-24T05:17:46;3.15;;;2.55;;
17253;SDS011;32542;52.832;13.816;2022-12-24T05:20:50;3.92;;;2.97;;
17253;SDS011;32542;52.832;13.816;2022-12-24T05:23:53;3.35;;;2.60;;
17253;SDS011;32542;52.832;13.816;2022-12-24T05:27:13;3.08;;;2.67;;
17253;SDS011;32542;52.832;13.816;2022-12-24T05:30:16;3.13;;;2.65;;
17253;SDS011;32542;52.832;13.816;2022-12-24T05:33:19;3.45;;;2.90;;
17253;SDS011;32542;52.832;13.816;2022-12-24T05:36:23;2.97;;;2.53;;
17253;SDS011;32542;52.832;13.816;2022-12-24T05:39:26;2.90;;;2.60;;
17253;SDS011;32542;52.832;13.816;2022-12-24T05:42:29;4.10;;;2.60;;
17253;SDS011;32542;52.832;13.816;2022-12-24T05:45:31;2.72;;;2.47;;
17253;SDS011;32542;52.832;13.816;2022-12-24T05:48:34;2.97;;;2.65;;
17253;SDS011;32542;52.832;13.816;2022-12-24T05:51:39;3.45;;;2.78;;
17253;SDS011;32542;52.832;13.816;2022-12-24T05:54:42;3.50;;;2.78;;
17253;SDS011;32542;52.832;13.816;2022-12-24T05:57:45;3.83;;;2.90;;
17253;SDS011;32542;52.832;13.816;2022-12-24T06:00:48;3.65;;;2.63;;
17253;SDS011;32542;52.832;13.816;2022-12-24T06:03:55;2.95;;;2.63;;
17253;SDS011;32542;52.832;13.816;2022-12-24T06:07:00;3.65;;;2.70;;
17253;SDS011;32542;52.832;13.816;2022-12-24T06:10:03;3.83;;;2.58;;
17253;SDS011;32542;52.832;13.816;2022-12-24T06:13:06;3.42;;;2.67;;
17253;SDS011;32542;52.832;13.816;2022-12-24T06:16:10;2.85;;;2.58;;
17253;SDS011;32542;52.832;13.816;2022-12-24T06:19:15;2.60;;;2.38;;
17253;SDS011;32542;52.832;13.816;2022-12-24T06:22:19;3.35;;;2.63;;
17253;SDS011;32542;52.832;13.816;2022-12-24T06:25:22;3.05;;;2.67;;
17253;SDS011;32542;52.832;13.816;2022-12-24T06:28:25;3.35;;;2.50;;
17253;SDS011;32542;52.832;13.816;2022-12-24T06:31:28;2.53;;;2.22;;
17253;SDS011;32542;52.832;13.816;2022-12-24T06:34:31;4.30;;;2.80;;
17253;SDS011;32542;52.832;13.816;2022-12-24T06:37:35;3.40;;;2.83;;
17253;SDS011;32542;52.832;13.816;2022-12-24T06:40:38;4.50;;;2.80;;
17253;SDS011;32542;52.832;13.816;2022-12-24T06:43:42;3.45;;;2.70;;
17253;SDS011;32542;52.832;13.816;2022-12-24T06:46:46;3.15;;;2.70;;
17253;SDS011;32542;52.832;13.816;2022-12-24T06:49:49;3.70;;;2.75;;
17253;SDS011;32542;52.832;13.816;2022-12-24T06:52:54;3.63;;;2.60;;
17253;SDS011;32542;52.832;13.816;2022-12-24T06:56:00;3.95;;;2.80;;
17253;SDS011;32542;52.832;13.816;2022-12-24T06:59:03;2.60;;;2.40;;
17253;SDS011;32542;52.832;13.816;2022-12-24T07:02:06;2.70;;;2.50;;
17253;SDS011;32542;52.832;13.816;2022-12-24T07:05:11;4.13;;;2.80;;
17253;SDS011;32542;52.832;13.816;2022-12-24T07:08:16;3.90;;;2.80;;
17253;SDS011;32542;52.832;13.816;2022-12-24T07:11:19;3.03;;;2.58;;
17253;SDS011;32542;52.832;13.816;2022-12-24T07:14:22;3.20;;;2.90;;
17253;SDS011;32542;52.832;13.816;2022-12-24T07:17:25;3.75;;;2.70;;
17253;SDS011;32542;52.832;13.816;2022-12-24T07:20:28;4.18;;;3.03;;
17253;SDS011;32542;52.832;13.816;2022-12-24T07:23:33;4.35;;;3.28;;
17253;SDS011;32542;52.832;13.816;2022-12-24T07:26:36;4.65;;;3.08;;
17253;SDS011;32542;52.832;13.816;2022-12-24T07:29:39;5.07;;;3.33;;
17253;SDS011;32542;52.832;13.816;2022-12-24T07:32:41;4.70;;;3.15;;
17253;SDS011;32542;52.832;13.816;2022-12-24T07:35:44;3.75;;;3.08;;
17253;SDS011;32542;52.832;13.816;2022-12-24T07:38:57;3.30;;;3.00;;
17253;SDS011;32542;52.832;13.816;2022-12-24T07:42:00;3.95;;;3.28;;
17253;SDS011;32542;52.832;13.816;2022-12-24T07:45:03;4.32;;;3.50;;
17253;SDS011;32542;52.832;13.816;2022-12-24T07:48:06;4.80;;;3.83;;
17253;SDS011;32542;52.832;13.816;2022-12-24T07:51:09;3.75;;;3.30;;
17253;SDS011;32542;52.832;13.816;2022-12-24T07:54:13;4.88;;;3.47;;
17253;SDS011;32542;52.832;13.816;2022-12-24T07:57:16;4.28;;;3.67;;
17253;SDS011;32542;52.832;13.816;2022-12-24T08:00:19;5.60;;;4.45;;
17253;SDS011;32542;52.832;13.816;2022-12-24T08:03:22;5.72;;;4.38;;
17253;SDS011;32542;52.832;13.816;2022-12-24T08:06:26;5.03;;;4.18;;
17253;SDS011;32542;52.832;13.816;2022-12-24T08:09:31;5.55;;;4.60;;
17253;SDS011;32542;52.832;13.816;2022-12-24T08:12:34;4.57;;;3.70;;
17253;SDS011;32542;52.832;13.816;2022-12-24T08:15:37;4.82;;;4.05;;
17253;SDS011;32542;52.832;13.816;2022-12-24T08:18:40;5.32;;;4.40;;
17253;SDS011;32542;52.832;13.816;2022-12-24T08:21:43;5.85;;;4.30;;
17253;SDS011;32542;52.832;13.816;2022-12-24T08:24:47;5.53;;;4.38;;
17253;SDS011;32542;52.832;13.816;2022-12-24T08:27:50;6.78;;;4.60;;
17253;SDS011;32542;52.832;13.816;2022-12-24T08:30:53;6.28;;;4.25;;
17253;SDS011;32542;52.832;13.816;2022-12-24T08:33:56;5.75;;;3.92;;
17253;SDS011;32542;52.832;13.816;2022-12-24T08:36:59;6.35;;;4.50;;
17253;SDS011;32542;52.832;13.816;2022-12-24T08:40:04;5.95;;;4.47;;
17253;SDS011;32542;52.832;13.816;2022-12-24T08:43:07;6.45;;;4.85;;
17253;SDS011;32542;52.832;13.816;2022-12-24T08:46:10;4.72;;;3.60;;
17253;SDS011;32542;52.832;13.816;2022-12-24T08:49:13;5.85;;;4.10;;
17253;SDS011;32542;52.832;13.816;2022-12-24T08:52:16;5.38;;;4.28;;
17253;SDS011;32542;52.832;13.816;2022-12-24T08:55:20;5.18;;;4.03;;
17253;SDS011;32542;52.832;13.816;2022-12-24T08:58:23;6.13;;;4.63;;
17253;SDS011;32542;52.832;13.816;2022-12-24T09:01:26;5.45;;;4.13;;
17253;SDS011;32542;52.832;13.816;2022-12-24T09:04:29;6.35;;;4.50;;
17253;SDS011;32542;52.832;13.816;2022-12-24T09:07:32;6.35;;;4.45;;
17253;SDS011;32542;52.832;13.816;2022-12-24T09:10:36;5.32;;;4.75;;
17253;SDS011;32542;52.832;13.816;2022-12-24T09:13:39;5.97;;;4.30;;
17253;SDS011;32542;52.832;13.816;2022-12-24T09:16:42;5.00;;;4.32;;
17253;SDS011;32542;52.832;13.816;2022-12-24T09:19:45;5.28;;;4.20;;
17253;SDS011;32542;52.832;13.816;2022-12-24T09:22:48;5.50;;;4.43;;
17253;SDS011;32542;52.832;13.816;2022-12-24T09:25:53;4.82;;;3.97;;
17253;SDS011;32542;52.832;13.816;2022-12-24T09:28:56;5.95;;;4.10;;
17253;SDS011;32542;52.832;13.816;2022-12-24T09:32:01;6.25;;;4.53;;
17253;SDS011;32542;52.832;13.816;2022-12-24T09:35:04;6.28;;;4.38;;
17253;SDS011;32542;52.832;13.816;2022-12-24T09:38:07;6.05;;;4.38;;
17253;SDS011;32542;52.832;13.816;2022-12-24T09:41:12;5.78;;;4.00;;
17253;SDS011;32542;52.832;13.816;2022-12-24T09:44:31;5.45;;;4.20;;
17253;SDS011;32542;52.832;13.816;2022-12-24T09:47:40;5.82;;;4.40;;
17253;SDS011;32542;52.832;13.816;2022-12-24T09:50:49;5.13;;;4.25;;
17253;SDS011;32542;52.832;13.816;2022-12-24T09:53:56;5.22;;;3.97;;
17253;SDS011;32542;52.832;13.816;2022-12-24T09:57:07;6.13;;;4.45;;
17253;SDS011;32542;52.832;13.816;2022-12-24T10:00:18;6.35;;;4.30;;
17253;SDS011;32542;52.832;13.816;2022-12-24T10:03:23;6.20;;;4.30;;
17253;SDS011;32542;52.832;13.816;2022-12-24T10:06:28;5.15;;;4.00;;
17253;SDS011;32542;52.832;13.816;2022-12-24T10:09:38;5.63;;;4.15;;
17253;SDS011;32542;52.832;13.816;2022-12-24T10:12:52;5.18;;;4.35;;
17253;SDS011;32542;52.832;13.816;2022-12-24T10:16:07;6.43;;;4.60;;
17253;SDS011;32542;52.832;13.816;2022-12-24T10:19:16;5.97;;;4.10;;
17253;SDS011;32542;52.832;13.816;2022-12-24T10:22:23;5.50;;;4.03;;
17253;SDS011;32542;52.832;13.816;2022-12-24T10:25:35;6.43;;;4.28;;
17253;SDS011;32542;52.832;13.816;2022-12-24T10:28:47;5.35;;;4.10;;
17253;SDS011;32542;52.832;13.816;2022-12-24T10:31:54;5.57;;;4.07;;
17253;SDS011;32542;52.832;13.816;2022-12-24T10:35:03;5.65;;;4.32;;
17253;SDS011;32542;52.832;13.816;2022-12-24T10:38:18;4.93;;;4.18;;
17253;SDS011;32542;52.832;13.816;2022-12-24T10:41:21;5.10;;;4.15;;
17253;SDS011;32542;52.832;13.816;2022-12-24T10:44:28;5.35;;;4.03;;
17253;SDS011;32542;52.832;13.816;2022-12-24T10:47:34;5.28;;;3.97;;
17253;SDS011;32542;52.832;13.816;2022-12-24T10:50:42;5.45;;;3.95;;
17253;SDS011;32542;52.832;13.816;2022-12-24T10:53:54;5.72;;;4.40;;
17253;SDS011;32542;52.832;13.816;2022-12-24T10:57:02;5.35;;;3.92;;
17253;SDS011;32542;52.832;13.816;2022-12-24T11:00:09;5.20;;;4.07;;
17253;SDS011;32542;52.832;13.816;2022-12-24T11:03:22;5.15;;;4.20;;
17253;SDS011;32542;52.832;13.816;2022-12-24T11:06:30;4.95;;;4.13;;
17253;SDS011;32542;52.832;13.816;2022-12-24T11:09:35;5.93;;;4.43;;
17253;SDS011;32542;52.832;13.816;2022-12-24T11:12:45;6.07;;;4.53;;
17253;SDS011;32542;52.832;13.816;2022-12-24T11:16:15;4.75;;;3.92;;
17253;SDS011;32542;52.832;13.816;2022-12-24T11:19:30;5.00;;;4.05;;
17253;SDS011;32542;52.832;13.816;2022-12-24T11:22:35;4.72;;;3.72;;
17253;SDS011;32542;52.832;13.816;2022-12-24T11:25:37;6.80;;;4.20;;
17253;SDS011;32542;52.832;13.816;2022-12-24T11:28:43;6.60;;;4.65;;
17253;SDS011;32542;52.832;13.816;2022-12-24T11:31:47;4.90;;;4.40;;
17253;SDS011;32542;52.832;13.816;2022-12-24T11:34:52;4.70;;;3.92;;
17253;SDS011;32542;52.832;13.816;2022-12-24T11:38:07;5.32;;;4.18;;
17253;SDS011;32542;52.832;13.816;2022-12-24T11:41:12;5.80;;;4.28;;
17253;SDS011;32542;52.832;13.816;2022-12-24T11:44:17;5.50;;;4.25;;
17253;SDS011;32542;52.832;13.816;2022-12-24T11:47:35;5.05;;;3.97;;
17253;SDS011;32542;52.832;13.816;2022-12-24T11:50:39;6.35;;;4.60;;
17253;SDS011;32542;52.832;13.816;2022-12-24T11:53:43;6.05;;;4.22;;
17253;SDS011;32542;52.832;13.816;2022-12-24T11:56:50;6.45;;;4.07;;
17253;SDS011;32542;52.832;13.816;2022-12-24T11:59:55;4.60;;;3.65;;
17253;SDS011;32542;52.832;13.816;2022-12-24T12:02:59;5.15;;;4.28;;
17253;SDS011;32542;52.832;13.816;2022-12-24T12:06:07;4.65;;;3.85;;
17253;SDS011;32542;52.832;13.816;2022-12-24T12:09:21;5.80;;;4.07;;
17253;SDS011;32542;52.832;13.816;2022-12-24T12:12:29;5.72;;;3.90;;
17253;SDS011;32542;52.832;13.816;2022-12-24T12:15:34;5.38;;;4.18;;
17253;SDS011;32542;52.832;13.816;2022-12-24T12:18:45;6.00;;;4.30;;
17253;SDS011;32542;52.832;13.816;2022-12-24T12:21:53;4.57;;;3.88;;
17253;SDS011;32542;52.832;13.816;2022-12-24T12:24:56;4.80;;;3.80;;
17253;SDS011;32542;52.832;13.816;2022-12-24T12:28:02;5.15;;;3.83;;
17253;SDS011;32542;52.832;13.816;2022-12-24T12:31:11;4.85;;;3.90;;
17253;SDS011;32542;52.832;13.816;2022-12-24T12:34:22;4.78;;;3.75;;
17253;SDS011;32542;52.832;13.816;2022-12-24T12:37:32;5.75;;;4.15;;
17253;SDS011;32542;52.832;13.816;2022-12-24T12:40:44;5.65;;;3.90;;
17253;SDS011;32542;52.832;13.816;2022-12-24T12:44:04;5.03;;;4.18;;
17253;SDS011;32542;52.832;13.816;2022-12-24T12:47:30;5.55;;;4.07;;
17253;SDS011;32542;52.832;13.816;2022-12-24T12:50:49;4.93;;;3.75;;
17253;SDS011;32542;52.832;13.816;2022-12-24T12:54:04;5.15;;;3.97;;
17253;SDS011;32542;52.832;13.816;2022-12-24T12:57:23;5.22;;;3.88;;
17253;SDS011;32542;52.832;13.816;2022-12-24T13:00:30;5.88;;;4.47;;
17253;SDS011;32542;52.832;13.816;2022-12-24T13:07:42;4.80;;;3.78;;
17253;SDS011;32542;52.832;13.816;2022-12-24T13:11:05;5.20;;;3.83;;
17253;SDS011;32542;52.832;13.816;2022-12-24T13:14:37;5.53;;;4.00;;
17253;SDS011;32542;52.832;13.816;2022-12-24T13:17:55;5.22;;;3.83;;
17253;SDS011;32542;52.832;13.816;2022-12-24T13:21:22;4.20;;;3.70;;
17253;SDS011;32542;52.832;13.816;2022-12-24T13:24:29;4.72;;;3.85;;
17253;SDS011;32542;52.832;13.816;2022-12-24T13:27:33;5.22;;;4.07;;
17253;SDS011;32542;52.832;13.816;2022-12-24T13:30:37;5.32;;;3.50;;
17253;SDS011;32542;52.832;13.816;2022-12-24T13:33:45;5.43;;;3.67;;
17253;SDS011;32542;52.832;13.816;2022-12-24T13:40:23;5.28;;;3.80;;
17253;SDS011;32542;52.832;13.816;2022-12-24T13:43:28;5.30;;;3.92;;
17253;SDS011;32542;52.832;13.816;2022-12-24T13:47:16;5.10;;;4.00;;
17253;SDS011;32542;52.832;13.816;2022-12-24T13:50:34;4.22;;;3.40;;
17253;SDS011;32542;52.832;13.816;2022-12-24T13:53:40;4.20;;;3.80;;
17253;SDS011;32542;52.832;13.816;2022-12-24T13:56:47;4.85;;;3.78;;
17253;SDS011;32542;52.832;13.816;2022-12-24T13:59:52;5.80;;;3.70;;
17253;SDS011;32542;52.832;13.816;2022-12-24T14:03:00;4.47;;;3.60;;
17253;SDS011;32542;52.832;13.816;2022-12-24T14:06:09;4.57;;;3.42;;
17253;SDS011;32542;52.832;13.816;2022-12-24T14:09:15;4.88;;;3.53;;
17253;SDS011;32542;52.832;13.816;2022-12-24T14:16:01;4.25;;;3.60;;
17253;SDS011;32542;52.832;13.816;2022-12-24T14:19:09;5.43;;;3.78;;
17253;SDS011;32542;52.832;13.816;2022-12-24T14:22:18;4.38;;;3.50;;
17253;SDS011;32542;52.832;13.816;2022-12-24T14:25:28;5.55;;;3.70;;
17253;SDS011;32542;52.832;13.816;2022-12-24T14:28:33;4.28;;;3.50;;
17253;SDS011;32542;52.832;13.816;2022-12-24T14:31:50;3.78;;;3.38;;
17253;SDS011;32542;52.832;13.816;2022-12-24T14:35:03;5.03;;;3.65;;
17253;SDS011;32542;52.832;13.816;2022-12-24T14:38:11;3.95;;;3.30;;
17253;SDS011;32542;52.832;13.816;2022-12-24T14:41:22;4.53;;;3.28;;
17253;SDS011;32542;52.832;13.816;2022-12-24T14:44:35;5.95;;;3.80;;
17253;SDS011;32542;52.832;13.816;2022-12-24T14:47:50;4.15;;;3.55;;
17253;SDS011;32542;52.832;13.816;2022-12-24T14:51:03;4.65;;;3.60;;
17253;SDS011;32542;52.832;13.816;2022-12-24T14:54:21;6.00;;;4.05;;
17253;SDS011;32542;52.832;13.816;2022-12-24T14:57:33;4.57;;;3.58;;
17253;SDS011;32542;52.832;13.816;2022-12-24T15:00:36;3.97;;;3.30;;
17253;SDS011;32542;52.832;13.816;2022-12-24T15:03:41;4.53;;;3.55;;
17253;SDS011;32542;52.832;13.816;2022-12-24T15:06:45;4.68;;;3.88;;
17253;SDS011;32542;52.832;13.816;2022-12-24T15:09:50;4.63;;;3.40;;
17253;SDS011;32542;52.832;13.816;2022-12-24T15:12:55;3.95;;;3.30;;
17253;SDS011;32542;52.832;13.816;2022-12-24T15:15:59;4.38;;;3.22;;
17253;SDS011;32542;52.832;13.816;2022-12-24T15:19:06;5.93;;;3.78;;
17253;SDS011;32542;52.832;13.816;2022-12-24T15:22:20;5.10;;;3.58;;
17253;SDS011;32542;52.832;13.816;2022-12-24T15:25:26;5.05;;;3.80;;
17253;SDS011;32542;52.832;13.816;2022-12-24T15:28:34;6.10;;;3.80;;
17253;SDS011;32542;52.832;13.816;2022-12-24T15:31:38;4.30;;;3.80;;
17253;SDS011;32542;52.832;13.816;2022-12-24T15:34:43;3.80;;;3.30;;
17253;SDS011;32542;52.832;13.816;2022-12-24T15:37:46;3.78;;;3.30;;
17253;SDS011;32542;52.832;13.816;2022-12-24T15:40:49;3.83;;;3.45;;
17253;SDS011;32542;52.832;13.816;2022-12-24T15:43:53;4.80;;;3.55;;
17253;SDS011;32542;52.832;13.816;2022-12-24T15:47:03;3.90;;;3.40;;
17253;SDS011;32542;52.832;13.816;2022-12-24T15:50:14;4.65;;;3.65;;
17253;SDS011;32542;52.832;13.816;2022-12-24T15:53:21;5.65;;;3.60;;
17253;SDS011;32542;52.832;13.816;2022-12-24T15:56:28;4.80;;;3.65;;
17253;SDS011;32542;52.832;13.816;2022-12-24T15:59:34;3.92;;;3.13;;
17253;SDS011;32542;52.832;13.816;2022-12-24T16:02:38;4.13;;;3.30;;
17253;SDS011;32542;52.832;13.816;2022-12-24T16:05:44;4.88;;;3.47;;
17253;SDS011;32542;52.832;13.816;2022-12-24T16:08:47;3.70;;;3.20;;
17253;SDS011;32542;52.832;13.816;2022-12-24T16:11:51;5.15;;;3.60;;
17253;SDS011;32542;52.832;13.816;2022-12-24T16:15:01;4.07;;;3.13;;
17253;SDS011;32542;52.832;13.816;2022-12-24T16:18:04;3.63;;;3.15;;
17253;SDS011;32542;52.832;13.816;2022-12-24T16:21:08;4.10;;;3.50;;
17253;SDS011;32542;52.832;13.816;2022-12-24T16:24:20;4.97;;;3.65;;
17253;SDS011;32542;52.832;13.816;2022-12-24T16:27:25;4.55;;;3.22;;
17253;SDS011;32542;52.832;13.816;2022-12-24T16:30:28;4.25;;;3.55;;
17253;SDS011;32542;52.832;13.816;2022-12-24T16:33:31;4.68;;;3.53;;
17253;SDS011;32542;52.832;13.816;2022-12-24T16:36:35;5.60;;;3.80;;
17253;SDS011;32542;52.832;13.816;2022-12-24T16:39:38;3.92;;;3.53;;
17253;SDS011;32542;52.832;13.816;2022-12-24T16:42:41;5.10;;;3.85;;
17253;SDS011;32542;52.832;13.816;2022-12-24T16:46:02;4.35;;;3.10;;
17253;SDS011;32542;52.832;13.816;2022-12-24T16:49:09;4.07;;;3.53;;
17253;SDS011;32542;52.832;13.816;2022-12-24T16:52:18;4.57;;;3.50;;
17253;SDS011;32542;52.832;13.816;2022-12-24T16:55:22;4.40;;;3.45;;
17253;SDS011;32542;52.832;13.816;2022-12-24T16:58:25;4.15;;;3.70;;
17253;SDS011;32542;52.832;13.816;2022-12-24T17:01:29;4.75;;;3.60;;
17253;SDS011;32542;52.832;13.816;2022-12-24T17:04:32;4.47;;;3.45;;
17253;SDS011;32542;52.832;13.816;2022-12-24T17:07:37;4.60;;;3.58;;
17253;SDS011;32542;52.832;13.816;2022-12-24T17:10:48;5.15;;;3.42;;
17253;SDS011;32542;52.832;13.816;2022-12-24T17:13:52;4.10;;;3.50;;
17253;SDS011;32542;52.832;13.816;2022-12-24T17:16:55;4.82;;;3.28;;
17253;SDS011;32542;52.832;13.816;2022-12-24T17:19:57;5.32;;;3.47;;
17253;SDS011;32542;52.832;13.816;2022-12-24T17:23:02;4.90;;;3.58;;
17253;SDS011;32542;52.832;13.816;2022-12-24T17:26:04;4.45;;;3.38;;
17253;SDS011;32542;52.832;13.816;2022-12-24T17:29:14;5.28;;;3.72;;
17253;SDS011;32542;52.832;13.816;2022-12-24T17:32:17;4.13;;;3.22;;
17253;SDS011;32542;52.832;13.816;2022-12-24T17:35:20;5.47;;;3.90;;
17253;SDS011;32542;52.832;13.816;2022-12-24T17:38:24;4.47;;;3.38;;
17253;SDS011;32542;52.832;13.816;2022-12-24T17:41:27;4.57;;;3.67;;
17253;SDS011;32542;52.832;13.816;2022-12-24T17:44:30;6.47;;;3.83;;
17253;SDS011;32542;52.832;13.816;2022-12-24T17:47:33;4.78;;;3.97;;
17253;SDS011;32542;52.832;13.816;2022-12-24T17:50:36;6.43;;;4.00;;
17253;SDS011;32542;52.832;13.816;2022-12-24T17:53:42;5.93;;;3.75;;
17253;SDS011;32542;52.832;13.816;2022-12-24T17:56:45;4.72;;;3.63;;
17253;SDS011;32542;52.832;13.816;2022-12-24T17:59:48;4.32;;;3.58;;
17253;SDS011;32542;52.832;13.816;2022-12-24T18:02:50;4.60;;;3.50;;
17253;SDS011;32542;52.832;13.816;2022-12-24T18:05:54;5.03;;;3.90;;
17253;SDS011;32542;52.832;13.816;2022-12-24T18:08:58;5.47;;;4.00;;
17253;SDS011;32542;52.832;13.816;2022-12-24T18:12:01;5.05;;;3.60;;
17253;SDS011;32542;52.832;13.816;2022-12-24T18:15:04;4.22;;;3.67;;
17253;SDS011;32542;52.832;13.816;2022-12-24T18:18:08;4.93;;;3.50;;
17253;SDS011;32542;52.832;13.816;2022-12-24T18:21:11;4.38;;;3.67;;
17253;SDS011;32542;52.832;13.816;2022-12-24T18:24:15;5.78;;;4.18;;
17253;SDS011;32542;52.832;13.816;2022-12-24T18:27:18;4.78;;;3.75;;
17253;SDS011;32542;52.832;13.816;2022-12-24T18:30:21;4.80;;;3.70;;
17253;SDS011;32542;52.832;13.816;2022-12-24T18:33:28;4.50;;;3.80;;
17253;SDS011;32542;52.832;13.816;2022-12-24T18:36:32;5.38;;;4.13;;
17253;SDS011;32542;52.832;13.816;2022-12-24T18:39:37;5.40;;;4.28;;